Terminal Aerodrome Forecast
Issued by NWS Amarillo, TX

Home | Current Version | Previous Version | Text Only | Print | Product List | Glossary On
Versions: 1 2 3 4 5 6 7 8 9 10 11 12 13 14 15 16 17 18 19 20 21 22 23 24 25 26 27 28
000
FTUS44 KAMA 280804 AAB
TAFAMA
TAF AMD
KAMA 280804Z 2808/2906 15007KT P6SM VCSH BKN040 OVC100
     FM281000 19010KT P6SM SCT080 BKN150
     FM281900 17012KT P6SM SCT080 OVC200 PROB30 2819/2823 -TSRA
      BKN050CB=

USA.gov is the U.S. government's official web portal to all federal, state and local government web resources and services.